Terminal Aerodrome Forecast
Issued by NWS St Louis, MO

Home | Current Version | Previous Version | Text Only | Print | Product List | Glossary On
Versions: 1 2 3 4 5 6 7 8 9 10 11 12 13 14 15 16 17 18 19 20 21 22 23 24
000
FTUS43 KLSX 311200 AAA
TAFSTL
TAF AMD
KSTL 311235Z 3113/0118 33014G21KT P6SM OVC030
     FM311400 34020G30KT P6SM SCT050
     FM010000 34014KT P6SM SKC
     FM010600 35005KT P6SM SKC=

USA.gov is the U.S. government's official web portal to all federal, state and local government web resources and services.